Time;durP1;ratioP1;P1;durP2;ratioP2;P2;SDS_P1;SDS_P2;PMS_P1;PMS_P2;Temp;Humidity;BMP_temperature;BMP_pressure;BME280_temperature;BME280_humidity;BME280_pressure;Samples;Min_cycle;Max_cycle;Signal;HPM_P1;HPM_P2
2022/12/25 00:00:55;;;;;;;;;;;;;;;-143.57;100.00;51414.31;5076908;28;19930;-61
2022/12/25 00:03:21;;;;;;;;;;;;;;;-143.57;100.00;51398.41;5080286;28;19924;-62
2022/12/25 00:05:48;;;;;;;;;;;;;;;-143.57;100.00;51446.13;5077470;28;20037;-62
2022/12/25 00:08:15;;;;;;;;;;;;;;;-143.57;100.00;51450.09;5077242;28;19935;-63
2022/12/25 00:10:42;;;;;;;;;;;;;;;-143.57;100.00;51422.25;5075734;28;19924;-62
2022/12/25 00:13:11;;;;;;;;;;;;;;;-143.57;100.00;51442.16;5079274;28;19924;-62
2022/12/25 00:15:38;;;;;;;;;;;;;;;-143.57;100.00;51454.06;5075054;28;21211;-63
2022/12/25 00:18:05;;;;;;;;;;;;;;;-143.57;100.00;51414.31;5078514;28;19935;-62
2022/12/25 00:20:31;;;;;;;;;;;;;;;-143.57;100.00;51434.19;5076996;28;19924;-62
2022/12/25 00:22:58;;;;;;;;;;;;;;;-143.57;100.00;51394.44;5075329;28;20466;-61
2022/12/25 00:25:25;;;;;;;;;;;;;;;-143.57;100.00;51458.03;5078361;28;19924;-61
2022/12/25 00:27:51;;;;;;;;;;;;;;;-143.57;100.00;51430.22;5074547;28;20479;-61
2022/12/25 00:30:18;;;;;;;;;;;;;;;-143.57;100.00;51422.25;5075935;28;19978;-62
2022/12/25 00:32:45;;;;;;;;;;;;;;;-143.57;100.00;51438.16;5074590;28;20042;-62
2022/12/25 00:35:12;;;;;;;;;;;;;;;-143.57;100.00;51446.13;5078649;28;20430;-62
2022/12/25 00:37:38;;;;;;;;;;;;;;;-143.57;100.00;51442.16;5076165;28;19967;-62
2022/12/25 00:40:05;;;;;;;;;;;;;;;-143.57;100.00;51404.38;5088885;28;20012;-62
2022/12/25 00:42:32;;;;;;;;;;;;;;;-143.57;100.00;51430.22;5076317;28;19965;-62
2022/12/25 00:45:00;;;;;;;;;;;;;;;-143.57;100.00;51430.22;5077747;28;19931;-63
2022/12/25 00:47:28;;;;;;;;;;;;;;;-143.57;100.00;51454.06;5076767;28;19928;-62
2022/12/25 00:49:54;;;;;;;;;;;;;;;-143.57;100.00;51442.16;5076241;28;20055;-61
2022/12/25 00:52:21;;;;;;;;;;;;;;;-143.57;100.00;51442.16;5073420;28;20443;-63
2022/12/25 00:54:48;;;;;;;;;;;;;;;-143.57;100.00;51404.38;5075782;28;19928;-62
2022/12/25 00:57:14;;;;;;;;;;;;;;;-143.57;100.00;51426.25;5076991;28;20790;-62
2022/12/25 00:59:41;;;;;;;;;;;;;;;-143.57;100.00;51438.16;5079988;28;19924;-61
2022/12/25 01:02:22;;;;;;;;;;;;;;;-143.57;100.00;51430.22;5073787;28;19959;-62
2022/12/25 01:04:55;;;;;;;;;;;;;;;-143.57;100.00;51446.13;5075339;28;19966;-62
2022/12/25 01:07:24;;;;;;;;;;;;;;;-143.57;100.00;51450.09;5075497;28;20023;-62
2022/12/25 01:12:38;;;;;;;;;;;;;;;-143.57;100.00;51438.16;5079554;28;19955;-62
2022/12/25 01:15:05;;;;;;;;;;;;;;;-143.57;100.00;51418.28;5073762;28;19932;-62
2022/12/25 01:17:33;;;;;;;;;;;;;;;-143.57;100.00;51428.22;5078816;28;19951;-62
2022/12/25 01:20:00;;;;;;;;;;;;;;;-143.57;100.00;51454.06;5075504;28;19936;-62
2022/12/25 01:22:27;;;;;;;;;;;;;;;-143.57;100.00;51420.28;5076417;28;19924;-62
2022/12/25 01:24:53;;;;;;;;;;;;;;;-143.57;100.00;51422.25;5076416;28;20512;-62
2022/12/25 01:27:20;;;;;;;;;;;;;;;-143.57;100.00;51462.03;5079864;28;19961;-62
2022/12/25 01:29:47;;;;;;;;;;;;;;;-143.57;100.00;51432.19;5075157;28;19935;-62
2022/12/25 01:32:13;;;;;;;;;;;;;;;-143.57;100.00;51438.16;5071209;28;20155;-62
2022/12/25 01:34:40;;;;;;;;;;;;;;;-143.57;100.00;51446.13;5078614;28;19947;-62
2022/12/25 01:37:07;;;;;;;;;;;;;;;-143.57;100.00;51442.16;5075944;28;20019;-62
2022/12/25 01:39:33;;;;;;;;;;;;;;;-143.57;100.00;51408.34;5078073;28;19928;-62
2022/12/25 01:42:00;;;;;;;;;;;;;;;-143.57;100.00;51473.94;5073912;28;20009;-62
2022/12/25 01:44:35;;;;;;;;;;;;;;;-143.57;100.00;51426.25;5078028;28;19931;-64
2022/12/25 01:47:05;;;;;;;;;;;;;;;-143.57;100.00;51454.06;5074107;28;19932;-61
2022/12/25 01:49:34;;;;;;;;;;;;;;;-143.57;100.00;51414.31;5075398;28;19924;-61
2022/12/25 01:52:23;;;;;;;;;;;;;;;-143.57;100.00;51438.16;5075464;28;19943;-61
2022/12/25 01:55:02;;;;;;;;;;;;;;;-143.57;100.00;51426.25;5076746;28;20668;-62
2022/12/25 01:57:30;;;;;;;;;;;;;;;-143.57;100.00;51471.97;5075930;28;19928;-61
2022/12/25 01:59:58;;;;;;;;;;;;;;;-143.57;100.00;51426.25;5080736;28;19924;-61
2022/12/25 02:02:25;;;;;;;;;;;;;;;-143.57;100.00;51420.28;5073142;28;20731;-61
2022/12/25 02:04:52;;;;;;;;;;;;;;;-143.57;100.00;51434.19;5077167;28;20650;-61
2022/12/25 02:07:20;;;;;;;;;;;;;;;-143.57;100.00;51450.09;5075141;28;19972;-61
2022/12/25 02:09:47;;;;;;;;;;;;;;;-143.57;100.00;51434.19;5075675;28;19932;-63
2022/12/25 02:12:33;;;;;;;;;;;;;;;-143.57;100.00;51458.03;5072935;28;19936;-62
2022/12/25 02:15:10;;;;;;;;;;;;;;;-143.57;100.00;51440.16;5075205;28;19939;-62
2022/12/25 02:17:49;;;;;;;;;;;;;;;-143.57;100.00;51440.16;5073197;28;19931;-62
2022/12/25 02:20:18;;;;;;;;;;;;;;;-143.57;100.00;51442.16;5068313;28;20742;-62
2022/12/25 02:23:04;;;;;;;;;;;;;;;-143.57;100.00;51422.25;5077623;28;20422;-62
2022/12/25 02:25:40;;;;;;;;;;;;;;;-143.57;100.00;51442.16;5073028;28;20799;-62
2022/12/25 02:28:31;;;;;;;;;;;;;;;-143.57;100.00;51422.25;5073332;28;19920;-62
2022/12/25 02:31:06;;;;;;;;;;;;;;;-143.57;100.00;51454.06;5072216;28;19932;-62
2022/12/25 02:34:04;;;;;;;;;;;;;;;-143.57;100.00;51426.25;5073628;28;19939;-62
2022/12/25 02:36:49;;;;;;;;;;;;;;;-143.57;100.00;51422.25;5072816;28;19933;-62
2022/12/25 02:42:17;;;;;;;;;;;;;;;-143.57;100.00;51422.25;5075865;28;19920;-62
2022/12/25 03:06:59;;;;;;;;;;;;;;;-143.57;100.00;51438.16;5078685;28;19927;-62
2022/12/25 03:12:19;;;;;;;;;;;;;;;-143.57;100.00;51442.16;5078147;28;19939;-62
2022/12/25 03:17:32;;;;;;;;;;;;;;;-143.57;100.00;51412.31;5075633;28;20542;-63
2022/12/25 03:28:15;;;;;;;;;;;;;;;-143.57;100.00;51464.00;5078309;28;21194;-62
2022/12/25 03:31:12;;;;;;;;;;;;;;;-143.57;100.00;51458.03;5074778;28;19982;-62
2022/12/25 03:37:20;;;;;;;;;;;;;;;-143.57;100.00;51438.16;5077702;28;19939;-63
2022/12/25 04:37:57;;;;;;;;;;;;;;;-143.57;100.00;51420.28;5045328;28;20639;-62
2022/12/25 04:40:24;;;;;;;;;;;;;;;-143.57;100.00;51444.13;5051968;28;19929;-62
2022/12/25 04:42:51;;;;;;;;;;;;;;;-143.57;100.00;51442.16;5072097;28;19932;-62
2022/12/25 04:45:18;;;;;;;;;;;;;;;-143.57;100.00;51398.41;5080056;28;19931;-62
2022/12/25 04:47:45;;;;;;;;;;;;;;;-143.57;100.00;51428.22;5077288;28;20038;-62
2022/12/25 04:50:12;;;;;;;;;;;;;;;-143.57;100.00;51440.16;5079881;28;20423;-63
2022/12/25 04:52:39;;;;;;;;;;;;;;;-143.57;100.00;51438.16;5078216;28;20096;-62
2022/12/25 04:55:07;;;;;;;;;;;;;;;-143.57;100.00;51426.25;5077052;28;20651;-62
2022/12/25 04:57:34;;;;;;;;;;;;;;;-143.57;100.00;51426.25;5078294;28;20014;-62
2022/12/25 05:00:00;;;;;;;;;;;;;;;-143.57;100.00;51454.06;5077501;28;20477;-63
2022/12/25 05:02:27;;;;;;;;;;;;;;;-143.57;100.00;51436.19;5079563;28;19931;-62
2022/12/25 05:04:54;;;;;;;;;;;;;;;-143.57;100.00;51430.22;5077148;28;19977;-62
2022/12/25 05:07:20;;;;;;;;;;;;;;;-143.57;100.00;51414.31;5080261;28;19928;-62
2022/12/25 05:09:47;;;;;;;;;;;;;;;-143.57;100.00;51468.00;5077156;28;19932;-62
2022/12/25 05:12:13;;;;;;;;;;;;;;;-143.57;100.00;51434.19;5080511;28;19924;-62
2022/12/25 05:14:40;;;;;;;;;;;;;;;-143.57;100.00;51501.78;5078679;28;19928;-62
2022/12/25 05:17:07;;;;;;;;;;;;;;;-143.57;100.00;51408.34;5083943;28;20401;-62
2022/12/25 05:19:33;;;;;;;;;;;;;;;-143.57;100.00;51430.22;5083838;28;20011;-62
2022/12/25 05:22:00;;;;;;;;;;;;;;;-143.57;100.00;51442.16;5086311;28;20461;-62
2022/12/25 05:24:27;;;;;;;;;;;;;;;-143.57;100.00;51466.00;5084996;28;19939;-62
2022/12/25 05:26:54;;;;;;;;;;;;;;;-143.57;100.00;51460.03;5078878;28;20318;-62
2022/12/25 05:29:20;;;;;;;;;;;;;;;-143.57;100.00;51434.19;5083921;28;20215;-62
2022/12/25 05:31:47;;;;;;;;;;;;;;;-143.57;100.00;51426.25;5079430;28;20005;-63
2022/12/25 05:34:13;;;;;;;;;;;;;;;-143.57;100.00;51473.94;5085120;28;19920;-62
2022/12/25 05:36:40;;;;;;;;;;;;;;;-143.57;100.00;51410.34;5077198;28;20446;-62
2022/12/25 05:39:07;;;;;;;;;;;;;;;-143.57;100.00;51475.94;5079198;28;19931;-62
2022/12/25 05:41:33;;;;;;;;;;;;;;;-143.57;100.00;51434.19;5076267;28;20637;-62
2022/12/25 05:44:00;;;;;;;;;;;;;;;-143.57;100.00;51434.19;5079393;28;19932;-62
2022/12/25 05:46:27;;;;;;;;;;;;;;;-143.57;100.00;51426.25;5077210;28;20437;-62
2022/12/25 05:48:54;;;;;;;;;;;;;;;-143.57;100.00;51462.03;5077638;28;20087;-63
2022/12/25 05:51:20;;;;;;;;;;;;;;;-143.57;100.00;51450.09;5077527;28;20412;-62
2022/12/25 05:53:47;;;;;;;;;;;;;;;-143.57;100.00;51410.34;5075820;28;20138;-62
2022/12/25 05:56:14;;;;;;;;;;;;;;;-143.57;100.00;51418.28;5076508;28;19936;-62
2022/12/25 05:58:40;;;;;;;;;;;;;;;-143.57;100.00;51442.16;5076688;28;20018;-62
2022/12/25 06:01:14;;;;;;;;;;;;;;;-143.57;100.00;51450.09;5081944;28;19928;-63
2022/12/25 06:03:41;;;;;;;;;;;;;;;-143.57;100.00;51442.16;5072803;28;19935;-62
2022/12/25 06:06:08;;;;;;;;;;;;;;;-143.57;100.00;51446.13;5075396;28;20019;-63
2022/12/25 06:08:35;;;;;;;;;;;;;;;-143.57;100.00;51450.09;5073962;28;19928;-63
2022/12/25 06:11:05;;;;;;;;;;;;;;;-143.57;100.00;51446.13;5076817;28;20042;-63
2022/12/25 06:13:33;;;;;;;;;;;;;;;-143.57;100.00;51481.91;5077058;28;19924;-62
2022/12/25 06:16:07;;;;;;;;;;;;;;;-143.57;100.00;51446.13;5080081;28;20381;-62
2022/12/25 06:18:34;;;;;;;;;;;;;;;-143.57;100.00;51428.22;5077322;28;20411;-63
2022/12/25 06:21:04;;;;;;;;;;;;;;;-143.57;100.00;51442.16;5079685;28;19932;-62
2022/12/25 06:23:31;;;;;;;;;;;;;;;-143.57;100.00;51442.16;5078475;28;19928;-63
2022/12/25 06:25:58;;;;;;;;;;;;;;;-143.57;100.00;51438.16;5078428;28;19928;-62
2022/12/25 06:28:25;;;;;;;;;;;;;;;-143.57;100.00;51422.25;5076754;28;19928;-63
2022/12/25 06:30:51;;;;;;;;;;;;;;;-143.57;100.00;51454.06;5081222;28;19962;-62
2022/12/25 06:33:18;;;;;;;;;;;;;;;-143.57;100.00;51444.13;5081050;28;20630;-62
2022/12/25 06:35:44;;;;;;;;;;;;;;;-143.57;100.00;51468.00;5077500;28;19935;-62
2022/12/25 06:38:11;;;;;;;;;;;;;;;-143.57;100.00;51469.97;5082569;28;19934;-62
2022/12/25 06:40:38;;;;;;;;;;;;;;;-143.57;100.00;51430.22;5080472;28;19932;-63
2022/12/25 06:43:04;;;;;;;;;;;;;;;-143.57;100.00;51422.25;5081272;28;19935;-63
2022/12/25 06:45:33;;;;;;;;;;;;;;;-143.57;100.00;51454.06;5079187;28;19939;-63
2022/12/25 06:48:00;;;;;;;;;;;;;;;-143.57;100.00;51450.09;5081997;28;19928;-62
2022/12/25 06:50:27;;;;;;;;;;;;;;;-143.57;100.00;51464.00;5077286;28;19935;-62
2022/12/25 06:52:54;;;;;;;;;;;;;;;-143.57;100.00;51473.94;5075001;28;19978;-63
2022/12/25 06:55:21;;;;;;;;;;;;;;;-143.57;100.00;51430.22;5080118;28;19928;-63
2022/12/25 06:57:48;;;;;;;;;;;;;;;-143.57;100.00;51450.09;5079255;28;19939;-63
2022/12/25 07:00:14;;;;;;;;;;;;;;;-143.57;100.00;51477.94;5079856;28;19924;-63
2022/12/25 07:02:45;;;;;;;;;;;;;;;-143.57;100.00;51473.94;5078790;28;20398;-62
2022/12/25 07:05:12;;;;;;;;;;;;;;;-143.57;100.00;51458.03;5084518;28;19920;-63
2022/12/25 07:07:38;;;;;;;;;;;;;;;-143.57;100.00;51430.22;5078139;28;20050;-63
2022/12/25 07:10:05;;;;;;;;;;;;;;;-143.57;100.00;51462.03;5081557;28;19928;-63
2022/12/25 07:12:32;;;;;;;;;;;;;;;-143.57;100.00;51485.88;5059372;28;19931;-63
2022/12/25 07:14:59;;;;;;;;;;;;;;;-143.57;100.00;51438.16;5082713;28;19928;-62
2022/12/25 07:17:25;;;;;;;;;;;;;;;-143.57;100.00;51444.13;5079532;28;19951;-61
2022/12/25 07:19:52;;;;;;;;;;;;;;;-143.57;100.00;51454.06;5082116;28;19974;-62
2022/12/25 07:22:18;;;;;;;;;;;;;;;-143.57;100.00;51442.16;5074314;28;19931;-62
2022/12/25 07:24:45;;;;;;;;;;;;;;;-143.57;100.00;51477.94;5079250;28;19928;-62
2022/12/25 07:27:12;;;;;;;;;;;;;;;-143.57;100.00;51430.22;5080986;28;19977;-62
2022/12/25 07:29:38;;;;;;;;;;;;;;;-143.57;100.00;51475.94;5078913;28;20021;-62
2022/12/25 07:32:05;;;;;;;;;;;;;;;-143.57;100.00;51418.28;5079476;28;19928;-62
2022/12/25 07:34:32;;;;;;;;;;;;;;;-143.57;100.00;51450.09;5076340;28;19924;-63
2022/12/25 07:36:58;;;;;;;;;;;;;;;-143.57;100.00;51446.13;5082428;28;19932;-63
2022/12/25 07:39:25;;;;;;;;;;;;;;;-143.57;100.00;51442.16;5077947;28;19939;-63
2022/12/25 07:41:52;;;;;;;;;;;;;;;-143.57;100.00;51430.22;5080914;28;19959;-60
2022/12/25 07:44:18;;;;;;;;;;;;;;;-143.57;100.00;51446.13;5078249;28;20594;-60
2022/12/25 07:46:45;;;;;;;;;;;;;;;-143.57;100.00;51442.16;5080674;28;19932;-61
2022/12/25 07:49:12;;;;;;;;;;;;;;;-143.57;100.00;51434.19;5078166;28;19924;-61
2022/12/25 07:51:38;;;;;;;;;;;;;;;-143.57;100.00;51469.97;5081068;28;19934;-60
2022/12/25 07:54:05;;;;;;;;;;;;;;;-143.57;100.00;51458.03;5078581;28;20535;-60
2022/12/25 07:56:32;;;;;;;;;;;;;;;-143.57;100.00;51442.16;5078346;28;19930;-61
2022/12/25 07:58:59;;;;;;;;;;;;;;;-143.57;100.00;51462.03;5075932;28;20591;-61
2022/12/25 08:01:26;;;;;;;;;;;;;;;-143.57;100.00;51438.16;5075743;28;20027;-61
2022/12/25 08:03:54;;;;;;;;;;;;;;;-143.57;100.00;51456.06;5078708;28;19932;-61
2022/12/25 08:06:22;;;;;;;;;;;;;;;-143.57;100.00;51466.00;5076008;28;19932;-60
2022/12/25 08:08:48;;;;;;;;;;;;;;;-143.57;100.00;51436.19;5080776;28;20614;-61
2022/12/25 08:11:15;;;;;;;;;;;;;;;-143.57;100.00;51464.00;5074610;28;20002;-61
2022/12/25 08:13:42;;;;;;;;;;;;;;;-143.57;100.00;51466.00;5078804;28;19935;-60
2022/12/25 08:16:09;;;;;;;;;;;;;;;-143.57;100.00;51497.81;5074748;28;20338;-60
2022/12/25 08:18:36;;;;;;;;;;;;;;;-143.57;100.00;51416.28;5076439;28;19954;-61
2022/12/25 08:21:04;;;;;;;;;;;;;;;-143.57;100.00;51446.13;5054692;28;19931;-61
2022/12/25 08:23:35;;;;;;;;;;;;;;;-143.57;100.00;51442.16;5077024;28;20374;-61
2022/12/25 08:26:02;;;;;;;;;;;;;;;-143.57;100.00;51438.16;5074833;28;19931;-61
2022/12/25 08:28:31;;;;;;;;;;;;;;;-143.57;100.00;51462.03;5077099;28;20081;-61
2022/12/25 08:30:58;;;;;;;;;;;;;;;-143.57;100.00;51458.03;5078770;28;19930;-61
2022/12/25 08:33:25;;;;;;;;;;;;;;;-143.57;100.00;51438.16;5075080;28;20426;-62
2022/12/25 08:35:51;;;;;;;;;;;;;;;-143.57;100.00;51466.00;5080612;28;21248;-62
2022/12/25 08:38:18;;;;;;;;;;;;;;;-143.57;100.00;51462.03;5078332;28;20561;-62
2022/12/25 08:40:44;;;;;;;;;;;;;;;-143.57;100.00;51442.16;5080550;28;19928;-61
2022/12/25 08:43:11;;;;;;;;;;;;;;;-143.57;100.00;51458.03;5052651;28;19940;-63
2022/12/25 08:45:38;;;;;;;;;;;;;;;-143.57;100.00;51414.31;5056995;28;19928;-62
2022/12/25 08:48:06;;;;;;;;;;;;;;;-143.57;100.00;51454.06;5057224;28;20369;-62
2022/12/25 08:50:33;;;;;;;;;;;;;;;-143.57;100.00;51438.16;5055962;28;19928;-61
2022/12/25 08:52:59;;;;;;;;;;;;;;;-143.57;100.00;51466.00;5051504;28;20369;-62
2022/12/25 08:55:26;;;;;;;;;;;;;;;-143.57;100.00;51432.19;5060159;28;19932;-62
2022/12/25 08:57:53;;;;;;;;;;;;;;;-143.57;100.00;51462.03;5054306;28;20279;-62
2022/12/25 09:00:19;;;;;;;;;;;;;;;-143.57;100.00;51418.28;5050757;28;19932;-62
2022/12/25 09:02:46;;;;;;;;;;;;;;;-143.57;100.00;51464.00;5057437;28;19955;-62
2022/12/25 09:05:13;;;;;;;;;;;;;;;-143.57;100.00;51501.78;5054096;28;20033;-62
2022/12/25 09:07:39;;;;;;;;;;;;;;;-143.57;100.00;51436.19;5053063;28;19933;-62
2022/12/25 09:10:06;;;;;;;;;;;;;;;-143.57;100.00;51454.06;5054437;28;20609;-62
2022/12/25 09:12:33;;;;;;;;;;;;;;;-143.57;100.00;51481.91;5060222;28;19931;-63
2022/12/25 09:14:59;;;;;;;;;;;;;;;-143.57;100.00;51458.03;5055939;28;19932;-62
2022/12/25 09:17:26;;;;;;;;;;;;;;;-143.57;100.00;51422.25;5056128;28;19925;-62
2022/12/25 09:19:53;;;;;;;;;;;;;;;-143.57;100.00;51450.09;5052850;28;19975;-62
2022/12/25 09:22:19;;;;;;;;;;;;;;;-143.57;100.00;51462.03;5054801;28;19929;-61
2022/12/25 09:24:46;;;;;;;;;;;;;;;-143.57;100.00;51454.06;5053394;28;20484;-62
2022/12/25 09:27:12;;;;;;;;;;;;;;;-143.57;100.00;51430.22;5059070;28;19928;-61
2022/12/25 09:29:39;;;;;;;;;;;;;;;-143.57;100.00;51471.97;5053495;28;19929;-61
2022/12/25 09:32:07;;;;;;;;;;;;;;;-143.57;100.00;51473.94;5052341;28;19925;-62
2022/12/25 09:34:34;;;;;;;;;;;;;;;-143.57;100.00;51454.06;5058527;28;19928;-61
2022/12/25 09:37:01;;;;;;;;;;;;;;;-143.57;100.00;51473.94;5052304;28;20481;-61
2022/12/25 09:39:28;;;;;;;;;;;;;;;-143.57;100.00;51458.03;5041093;28;19924;-62
2022/12/25 09:41:55;;;;;;;;;;;;;;;-143.57;100.00;51446.13;5056340;28;19935;-63
2022/12/25 09:44:24;;;;;;;;;;;;;;;-143.57;100.00;51434.19;5076148;28;19924;-63
2022/12/25 09:47:02;;;;;;;;;;;;;;;-143.57;100.00;51426.25;5074620;28;20504;-63
2022/12/25 09:49:52;;;;;;;;;;;;;;;-143.57;100.00;51418.28;5057280;28;19959;-64
2022/12/25 09:52:20;;;;;;;;;;;;;;;-143.57;100.00;51462.03;5073393;28;19935;-63
2022/12/25 09:54:59;;;;;;;;;;;;;;;-143.57;100.00;51458.03;5080706;28;19928;-63
2022/12/25 09:57:25;;;;;;;;;;;;;;;-143.57;100.00;51462.03;5074583;28;19932;-64
2022/12/25 09:59:53;;;;;;;;;;;;;;;-143.57;100.00;51442.16;5074622;28;20008;-63
2022/12/25 10:02:35;;;;;;;;;;;;;;;-143.57;100.00;51458.03;5076037;28;20593;-63
2022/12/25 10:05:02;;;;;;;;;;;;;;;-143.57;100.00;51469.97;5075415;28;19950;-64
2022/12/25 10:07:34;;;;;;;;;;;;;;;-143.57;100.00;51442.16;5080069;28;19931;-63
2022/12/25 10:10:21;;;;;;;;;;;;;;;-143.57;100.00;51469.97;5078619;28;19928;-62
2022/12/25 10:12:58;;;;;;;;;;;;;;;-143.57;100.00;51438.16;5047175;28;19935;-62
2022/12/25 10:15:25;;;;;;;;;;;;;;;-143.57;100.00;51440.16;5076342;28;19931;-62
2022/12/25 10:18:07;;;;;;;;;;;;;;;-143.57;100.00;51473.94;5080687;28;20015;-62
2022/12/25 10:20:50;;;;;;;;;;;;;;;-143.57;100.00;51462.03;5078586;28;20003;-62
2022/12/25 10:23:28;;;;;;;;;;;;;;;-143.57;100.00;51450.09;5079700;28;19931;-64
2022/12/25 10:25:55;;;;;;;;;;;;;;;-143.57;100.00;51466.00;5073718;28;19939;-65
2022/12/25 10:28:28;;;;;;;;;;;;;;;-143.57;100.00;51469.97;5075238;28;20566;-64
2022/12/25 10:30:57;;;;;;;;;;;;;;;-143.57;100.00;51432.19;5075025;28;19935;-62
2022/12/25 10:33:24;;;;;;;;;;;;;;;-143.57;100.00;51462.03;5072380;28;20622;-63
2022/12/25 10:35:51;;;;;;;;;;;;;;;-143.57;100.00;51440.16;5072510;28;20019;-63
2022/12/25 10:38:18;;;;;;;;;;;;;;;-143.57;100.00;51469.97;5074430;28;19931;-63
2022/12/25 10:40:44;;;;;;;;;;;;;;;-143.57;100.00;51436.19;5074836;28;19924;-62
2022/12/25 10:43:17;;;;;;;;;;;;;;;-143.57;100.00;51418.28;5077888;28;19924;-62
2022/12/25 10:45:45;;;;;;;;;;;;;;;-143.57;100.00;51460.03;5074935;28;19924;-62
2022/12/25 10:48:24;;;;;;;;;;;;;;;-143.57;100.00;51454.06;5077404;28;19959;-62
2022/12/25 10:50:51;;;;;;;;;;;;;;;-143.57;100.00;51398.41;5073952;28;19928;-62
2022/12/25 10:53:22;;;;;;;;;;;;;;;-143.57;100.00;51469.97;5078184;28;20428;-62
2022/12/25 10:55:54;;;;;;;;;;;;;;;-143.57;100.00;51434.19;5073641;28;19928;-62
2022/12/25 10:58:21;;;;;;;;;;;;;;;-143.57;100.00;51442.16;5077156;28;19978;-62
2022/12/25 11:00:53;;;;;;;;;;;;;;;-143.57;100.00;51454.06;5078203;28;19935;-62
2022/12/25 11:03:24;;;;;;;;;;;;;;;-143.57;100.00;51396.41;5072387;28;20399;-63
2022/12/25 11:05:51;;;;;;;;;;;;;;;-143.57;100.00;51420.28;5078784;28;19928;-63
2022/12/25 11:08:20;;;;;;;;;;;;;;;-143.57;100.00;51454.06;5076471;28;19935;-63
2022/12/25 11:10:55;;;;;;;;;;;;;;;-143.57;100.00;51477.94;5081155;28;19928;-63
2022/12/25 11:13:24;;;;;;;;;;;;;;;-143.57;100.00;51450.09;5077101;28;19920;-63
2022/12/25 11:16:01;;;;;;;;;;;;;;;-143.57;100.00;51426.25;5081460;28;19993;-64
2022/12/25 11:18:31;;;;;;;;;;;;;;;-143.57;100.00;51414.31;5075942;28;19928;-63
2022/12/25 11:20:59;;;;;;;;;;;;;;;-143.57;100.00;51414.31;5079874;28;19928;-62
2022/12/25 11:23:27;;;;;;;;;;;;;;;-143.57;100.00;51414.31;5077952;28;19924;-63
2022/12/25 11:26:00;;;;;;;;;;;;;;;-143.57;100.00;51458.03;5079869;28;19996;-65
2022/12/25 11:28:28;;;;;;;;;;;;;;;-143.57;100.00;51422.25;5075163;28;19924;-64
2022/12/25 11:31:00;;;;;;;;;;;;;;;-143.57;100.00;51430.22;5078426;28;20461;-64
2022/12/25 11:33:31;;;;;;;;;;;;;;;-143.57;100.00;51485.88;5075313;28;19928;-64
2022/12/25 11:36:00;;;;;;;;;;;;;;;-143.57;100.00;51416.28;5080247;28;19993;-64
2022/12/25 11:38:27;;;;;;;;;;;;;;;-143.57;100.00;51422.25;5071963;28;19928;-63
2022/12/25 11:40:57;;;;;;;;;;;;;;;-143.57;100.00;51416.28;5077231;28;19952;-64
2022/12/25 11:43:35;;;;;;;;;;;;;;;-143.57;100.00;51438.16;5076460;28;20578;-63
2022/12/25 11:46:14;;;;;;;;;;;;;;;-143.57;100.00;51402.38;5052473;28;19958;-63
2022/12/25 11:48:48;;;;;;;;;;;;;;;-143.57;100.00;51384.50;5076677;28;19924;-63
2022/12/25 11:51:16;;;;;;;;;;;;;;;-143.57;100.00;51434.19;5075489;28;19981;-62
2022/12/25 11:53:49;;;;;;;;;;;;;;;-143.57;100.00;51394.44;5075015;28;20046;-63
2022/12/25 11:56:24;;;;;;;;;;;;;;;-143.57;100.00;51426.25;5073444;28;20007;-63
2022/12/25 11:58:55;;;;;;;;;;;;;;;-143.57;100.00;51430.22;5076838;28;20031;-64
2022/12/25 12:01:33;;;;;;;;;;;;;;;-143.57;100.00;51442.16;5074251;28;19928;-64
2022/12/25 12:04:01;;;;;;;;;;;;;;;-143.57;100.00;51440.16;5078365;28;20015;-63
2022/12/25 12:06:44;;;;;;;;;;;;;;;-143.57;100.00;51418.28;5072864;28;19925;-63
2022/12/25 12:09:23;;;;;;;;;;;;;;;-143.57;100.00;51452.09;5078266;28;20019;-64
2022/12/25 12:12:00;;;;;;;;;;;;;;;-143.57;100.00;51469.97;5052555;28;19931;-64
2022/12/25 12:14:29;;;;;;;;;;;;;;;-143.57;100.00;51394.44;5079874;28;19958;-63
2022/12/25 12:16:56;;;;;;;;;;;;;;;-143.57;100.00;51418.28;5076462;28;19935;-65
2022/12/25 12:19:26;;;;;;;;;;;;;;;-143.57;100.00;51434.19;5079740;28;19953;-64
2022/12/25 12:21:54;;;;;;;;;;;;;;;-143.57;69.78;51420.28;5074806;28;19936;-64
2022/12/25 12:24:23;;;;;;;;;;;;;;;-143.57;66.47;51398.41;5075227;28;19924;-64
2022/12/25 12:27:01;;;;;;;;;;;;;;;-143.57;62.23;51402.38;5075166;28;19924;-64
2022/12/25 12:29:29;;;;;;;;;;;;;;;-143.57;62.06;51392.44;5078703;28;19932;-64
2022/12/25 12:32:00;;;;;;;;;;;;;;;-143.57;61.10;51390.47;5070108;28;19959;-64
2022/12/25 12:34:26;;;;;;;;;;;;;;;-143.57;59.39;51402.38;5079181;28;19924;-64
2022/12/25 12:37:13;;;;;;;;;;;;;;;-143.57;59.59;51422.25;5074449;28;19939;-64
2022/12/25 12:39:50;;;;;;;;;;;;;;;-143.57;57.38;51434.19;5068247;28;19951;-64
2022/12/25 12:42:18;;;;;;;;;;;;;;;-143.57;56.91;51398.41;5074407;28;19932;-64
2022/12/25 12:44:47;;;;;;;;;;;;;;;-143.57;55.37;51418.28;5077213;28;19970;-64
2022/12/25 12:47:36;;;;;;;;;;;;;;;-143.57;55.91;51416.28;5076157;28;19939;-64
2022/12/25 12:50:04;;;;;;;;;;;;;;;-143.57;55.98;51382.50;5073658;28;20168;-64
2022/12/25 12:52:32;;;;;;;;;;;;;;;-143.57;57.76;51414.31;5074224;28;20031;-65
2022/12/25 12:55:01;;;;;;;;;;;;;;;-143.57;56.54;51402.38;5076788;28;19928;-65
2022/12/25 12:57:31;;;;;;;;;;;;;;;-143.57;56.16;51402.38;5075220;28;21244;-64
2022/12/25 13:00:00;;;;;;;;;;;;;;;-143.57;53.38;51426.25;5075385;28;19977;-65
2022/12/25 13:02:45;;;;;;;;;;;;;;;-143.57;53.09;51394.44;5075288;28;20681;-64
2022/12/25 13:05:21;;;;;;;;;;;;;;;-143.57;51.40;51394.44;5075103;28;19981;-65
2022/12/25 13:07:51;;;;;;;;;;;;;;;-143.57;51.02;51424.25;5068253;28;20430;-64
2022/12/25 13:10:21;;;;;;;;;;;;;;;-143.57;51.07;51402.38;5073703;28;19932;-64
2022/12/25 13:12:52;;;;;;;;;;;;;;;-143.57;50.95;51346.72;5076117;28;19947;-64
2022/12/25 13:15:21;;;;;;;;;;;;;;;-143.57;47.93;51390.47;5077279;28;20365;-65
2022/12/25 13:17:48;;;;;;;;;;;;;;;-143.57;48.31;51374.56;5081639;28;19970;-64
2022/12/25 13:20:23;;;;;;;;;;;;;;;-143.57;47.53;51370.56;5074741;28;20235;-65
2022/12/25 13:22:50;;;;;;;;;;;;;;;-143.57;48.39;51380.50;5074487;28;19940;-65
2022/12/25 13:25:20;;;;;;;;;;;;;;;-143.57;48.89;51410.34;5078534;28;19927;-64
2022/12/25 13:27:53;;;;;;;;;;;;;;;-143.57;48.96;51414.31;5075294;28;19935;-64
2022/12/25 13:30:20;;;;;;;;;;;;;;;-143.57;48.70;51370.56;5067311;28;20064;-64
2022/12/25 13:32:48;;;;;;;;;;;;;;;-143.57;49.19;51370.56;5076830;28;20116;-64
2022/12/25 13:35:15;;;;;;;;;;;;;;;-143.57;48.36;51376.53;5073407;28;19928;-65
2022/12/25 13:37:43;;;;;;;;;;;;;;;-143.57;45.41;51402.38;5070159;28;20022;-65
2022/12/25 13:42:04;;;;;;;;;;;;;;;-143.57;46.20;51398.41;5073013;28;19924;-63
2022/12/25 13:43:25;;;;;;;;;;;;;;;-143.57;46.56;51398.41;5071337;28;20548;-65
2022/12/25 13:45:53;;;;;;;;;;;;;;;-143.57;47.44;51370.56;5073919;28;19940;-66
2022/12/25 13:48:21;;;;;;;;;;;;;;;-143.57;47.85;51402.38;5071763;28;19953;-65
2022/12/25 13:50:55;;;;;;;;;;;;;;;-143.57;46.81;51388.47;5076667;28;19975;-65
2022/12/25 13:53:21;;;;;;;;;;;;;;;-143.57;47.22;51398.41;5073826;28;20022;-65
2022/12/25 13:55:51;;;;;;;;;;;;;;;-143.57;46.74;51396.41;5076275;28;20203;-66
2022/12/25 13:58:23;;;;;;;;;;;;;;;-143.57;45.97;51352.69;5074679;28;19932;-66
2022/12/25 14:00:51;;;;;;;;;;;;;;;-143.57;46.81;51378.53;5077869;28;19936;-65
2022/12/25 14:03:20;;;;;;;;;;;;;;;-143.57;47.15;51394.44;5074787;28;19970;-65
2022/12/25 14:05:54;;;;;;;;;;;;;;;-143.57;46.68;51404.38;5075282;28;19954;-65
2022/12/25 14:08:24;;;;;;;;;;;;;;;-143.57;47.05;51402.38;5051799;28;19999;-64
2022/12/25 14:10:51;;;;;;;;;;;;;;;-143.57;47.69;51352.69;5076347;28;19928;-63
2022/12/25 14:13:19;;;;;;;;;;;;;;;-143.57;48.39;51358.66;5072731;28;19932;-63